Time;durP1;ratioP1;P1;durP2;ratioP2;P2;SDS_P1;SDS_P2;PMS_P1;PMS_P2;Temp;Humidity;BMP_temperature;BMP_pressure;BME280_temperature;BME280_humidity;BME280_pressure;Samples;Min_cycle;Max_cycle;Signal;HPM_P1;HPM_P2
2023/08/01 00:00:12;;;;;;;2.73;0.70;;;16.80;99.90;;;;;;5014938;28;20444;-87
2023/08/01 00:02:42;;;;;;;1.97;0.90;;;16.70;99.90;;;;;;5015291;28;20454;-86
2023/08/01 00:05:09;;;;;;;0.90;0.80;;;16.80;99.90;;;;;;5014884;28;20884;-86
2023/08/01 00:07:36;;;;;;;1.50;1.40;;;16.80;99.90;;;;;;5014968;28;20448;-86
2023/08/01 00:10:05;;;;;;;2.00;1.10;;;16.80;99.90;;;;;;5014966;28;20937;-86
2023/08/01 00:12:32;;;;;;;1.57;1.23;;;16.80;99.90;;;;;;5014912;28;20491;-86
2023/08/01 00:14:58;;;;;;;1.93;1.30;;;16.90;99.90;;;;;;5014455;28;20478;-86
2023/08/01 00:17:25;;;;;;;5.60;0.97;;;16.80;99.90;;;;;;5014847;28;20440;-86
2023/08/01 00:19:52;;;;;;;1.60;1.00;;;16.90;99.90;;;;;;5014706;28;20456;-87
2023/08/01 00:22:18;;;;;;;1.20;0.80;;;16.90;99.90;;;;;;5014298;28;20439;-86
2023/08/01 00:24:47;;;;;;;1.03;0.90;;;17.00;99.90;;;;;;5014570;28;20478;-86
2023/08/01 00:27:15;;;;;;;1.97;1.40;;;17.00;99.90;;;;;;5014825;28;20452;-86
2023/08/01 00:29:42;;;;;;;1.47;0.73;;;16.90;99.90;;;;;;5014644;28;20439;-87
2023/08/01 00:32:09;;;;;;;2.60;1.07;;;16.80;99.90;;;;;;5014488;28;20992;-86
2023/08/01 00:34:36;;;;;;;2.37;0.90;;;16.90;99.90;;;;;;5014416;28;20487;-86
2023/08/01 00:37:03;;;;;;;2.57;0.97;;;16.90;99.90;;;;;;5014283;28;20970;-86
2023/08/01 00:39:29;;;;;;;2.07;1.43;;;16.90;99.90;;;;;;5014588;28;20443;-86
2023/08/01 00:41:56;;;;;;;1.17;1.07;;;17.00;99.90;;;;;;5014068;28;20439;-87
2023/08/01 00:44:24;;;;;;;0.83;0.73;;;17.00;99.90;;;;;;5014748;28;20476;-87
2023/08/01 00:46:51;;;;;;;1.43;1.10;;;16.90;99.90;;;;;;5014341;28;20447;-86
2023/08/01 00:49:18;;;;;;;2.33;0.70;;;17.00;99.90;;;;;;5014232;28;20447;-87
2023/08/01 00:51:45;;;;;;;2.70;0.90;;;17.00;99.90;;;;;;5014222;28;20491;-86
2023/08/01 00:54:12;;;;;;;3.70;1.20;;;17.00;99.90;;;;;;5014256;28;20472;-87
2023/08/01 00:56:39;;;;;;;11.27;1.17;;;17.00;99.90;;;;;;5014442;28;20505;-86
2023/08/01 00:59:06;;;;;;;2.00;0.80;;;17.00;99.90;;;;;;5014026;28;20432;-87
2023/08/01 01:01:34;;;;;;;1.67;1.10;;;17.00;99.90;;;;;;5014147;28;20447;-87
2023/08/01 01:04:01;;;;;;;1.30;1.00;;;17.00;99.90;;;;;;5013545;28;20471;-86
2023/08/01 01:06:33;;;;;;;2.23;1.57;;;17.00;99.90;;;;;;5014011;28;20949;-87
2023/08/01 01:08:59;;;;;;;1.07;0.80;;;17.00;99.90;;;;;;5020136;28;20427;-86
2023/08/01 01:11:26;;;;;;;1.23;1.00;;;17.00;99.90;;;;;;5015355;28;20479;-87
2023/08/01 01:13:53;;;;;;;2.00;1.00;;;16.90;99.90;;;;;;5014334;28;20456;-87
2023/08/01 01:16:20;;;;;;;1.23;0.97;;;16.90;99.90;;;;;;5014152;28;20460;-88
2023/08/01 01:18:48;;;;;;;1.63;1.23;;;16.80;99.90;;;;;;5014122;28;20445;-87
2023/08/01 01:21:16;;;;;;;2.77;1.57;;;16.70;99.90;;;;;;5014593;28;20448;-87
2023/08/01 01:23:45;;;;;;;5.13;0.73;;;16.80;99.90;;;;;;5014159;28;20466;-85
2023/08/01 01:26:12;;;;;;;1.53;1.00;;;16.80;99.90;;;;;;5013786;28;20448;-85
2023/08/01 01:28:40;;;;;;;1.20;1.03;;;16.70;99.90;;;;;;5013787;28;20547;-85
2023/08/01 01:31:07;;;;;;;2.03;1.27;;;16.70;99.90;;;;;;5013827;28;20479;-85
2023/08/01 01:33:35;;;;;;;1.13;0.73;;;16.70;99.90;;;;;;5013373;28;20482;-85
2023/08/01 01:36:02;;;;;;;3.53;1.30;;;16.60;99.90;;;;;;5013289;28;20486;-83
2023/08/01 01:38:30;;;;;;;1.37;0.67;;;16.50;99.90;;;;;;5013418;28;20470;-84
2023/08/01 01:40:57;;;;;;;1.50;1.10;;;16.40;99.90;;;;;;5013136;28;20440;-83
2023/08/01 01:43:24;;;;;;;2.50;0.97;;;16.30;99.90;;;;;;5013285;28;20464;-83
2023/08/01 01:45:50;;;;;;;1.20;1.07;;;16.20;99.90;;;;;;5013140;28;20813;-84
2023/08/01 01:48:17;;;;;;;2.50;1.60;;;16.20;99.90;;;;;;5013001;28;20451;-84
2023/08/01 01:50:44;;;;;;;2.83;1.00;;;16.20;99.90;;;;;;5013002;28;20511;-84
2023/08/01 01:53:11;;;;;;;8.00;1.77;;;16.20;99.90;;;;;;5013033;28;20439;-84
2023/08/01 01:55:39;;;;;;;3.23;1.53;;;16.20;99.90;;;;;;5013308;28;20454;-86
2023/08/01 01:58:07;;;;;;;1.10;1.00;;;16.20;99.90;;;;;;5013059;28;20447;-85
2023/08/01 02:00:33;;;;;;;2.93;1.00;;;16.10;99.90;;;;;;5013388;28;20486;-87
2023/08/01 02:03:02;;;;;;;1.63;1.00;;;16.10;99.90;;;;;;5013248;28;20446;-85
2023/08/01 02:05:29;;;;;;;2.13;1.13;;;16.10;99.90;;;;;;5013357;28;20478;-86
2023/08/01 02:07:56;;;;;;;8.63;1.07;;;16.00;99.90;;;;;;5013270;28;20444;-85
2023/08/01 02:10:23;;;;;;;2.07;1.30;;;16.00;99.90;;;;;;5013316;28;20451;-85
2023/08/01 02:12:51;;;;;;;1.87;1.10;;;16.00;99.90;;;;;;5013248;28;20491;-85
2023/08/01 02:15:17;;;;;;;1.80;1.17;;;16.00;99.90;;;;;;5013108;28;20554;-85
2023/08/01 02:17:44;;;;;;;1.90;1.13;;;16.00;99.90;;;;;;5016085;28;20443;-86
2023/08/01 02:20:12;;;;;;;2.97;1.30;;;16.00;99.90;;;;;;5016835;28;20436;-86
2023/08/01 02:22:38;;;;;;;2.10;1.33;;;16.00;99.90;;;;;;5016831;28;20443;-85
2023/08/01 02:25:06;;;;;;;3.37;1.27;;;16.10;99.90;;;;;;5016263;28;21003;-84
2023/08/01 02:27:33;;;;;;;1.50;1.00;;;16.10;99.90;;;;;;5016632;28;20448;-85
2023/08/01 02:30:01;;;;;;;2.33;1.00;;;16.20;99.90;;;;;;5016805;28;20478;-85
2023/08/01 02:32:27;;;;;;;2.17;0.87;;;16.20;99.90;;;;;;5016914;28;20915;-85
2023/08/01 02:34:54;;;;;;;1.57;1.10;;;16.20;99.90;;;;;;5016063;28;20480;-84
2023/08/01 02:37:21;;;;;;;2.90;1.60;;;16.20;99.90;;;;;;5016782;28;20452;-85
2023/08/01 02:39:48;;;;;;;1.63;0.93;;;16.20;99.90;;;;;;5016571;28;20448;-84
2023/08/01 02:42:15;;;;;;;3.20;1.90;;;16.20;99.90;;;;;;5015969;28;20972;-84
2023/08/01 02:44:41;;;;;;;1.17;0.90;;;16.20;99.90;;;;;;5016454;28;20479;-85
2023/08/01 02:47:10;;;;;;;2.43;1.27;;;16.20;99.90;;;;;;5016275;28;20466;-84
2023/08/01 02:49:36;;;;;;;2.87;1.73;;;16.20;99.90;;;;;;5016389;28;20448;-86
2023/08/01 02:52:03;;;;;;;1.53;1.00;;;16.20;99.90;;;;;;5016025;28;20992;-85
2023/08/01 02:54:30;;;;;;;3.40;1.10;;;16.30;99.90;;;;;;5016208;28;20464;-86
2023/08/01 02:56:57;;;;;;;2.67;0.93;;;16.30;99.90;;;;;;5016423;28;20440;-86
2023/08/01 02:59:24;;;;;;;1.30;1.10;;;16.30;99.90;;;;;;5015940;28;20451;-85
2023/08/01 03:01:51;;;;;;;2.50;1.10;;;16.30;99.90;;;;;;5016168;28;20506;-86
2023/08/01 03:04:19;;;;;;;2.70;1.43;;;16.30;99.90;;;;;;5016265;28;20475;-86
2023/08/01 03:06:45;;;;;;;2.77;1.23;;;16.30;99.90;;;;;;5016248;28;20455;-86
2023/08/01 03:09:12;;;;;;;1.53;1.00;;;16.30;99.90;;;;;;5016283;28;20451;-85
2023/08/01 03:11:39;;;;;;;1.73;0.90;;;16.30;99.90;;;;;;5015866;28;20850;-86
2023/08/01 03:14:06;;;;;;;2.07;1.10;;;16.30;99.90;;;;;;5016319;28;20467;-85
2023/08/01 03:16:33;;;;;;;2.60;1.00;;;16.40;99.90;;;;;;5019887;28;20458;-85
2023/08/01 03:19:04;;;;;;;2.40;1.20;;;16.40;99.90;;;;;;5025282;28;20451;-85
2023/08/01 03:21:32;;;;;;;1.47;0.97;;;16.40;99.90;;;;;;5016380;28;20432;-87
2023/08/01 03:24:01;;;;;;;1.00;0.90;;;16.40;99.90;;;;;;5016532;28;20837;-88
2023/08/01 03:26:29;;;;;;;3.43;1.90;;;16.50;99.90;;;;;;5016030;28;20470;-85
2023/08/01 03:28:56;;;;;;;2.10;1.60;;;16.50;99.90;;;;;;5015509;28;20949;-86
2023/08/01 03:31:23;;;;;;;2.97;1.07;;;16.50;99.90;;;;;;5015966;28;20447;-85
2023/08/01 03:33:50;;;;;;;2.53;0.90;;;16.50;99.90;;;;;;5016152;28;20475;-85
2023/08/01 03:36:17;;;;;;;1.90;1.03;;;16.60;99.90;;;;;;5016541;28;20467;-85
2023/08/01 03:38:45;;;;;;;1.70;1.00;;;16.60;99.90;;;;;;5016992;28;20452;-85
2023/08/01 03:41:12;;;;;;;3.43;1.53;;;16.60;99.90;;;;;;5017185;28;20448;-85
2023/08/01 03:43:39;;;;;;;3.43;1.43;;;16.70;99.90;;;;;;5016761;28;20475;-85
2023/08/01 03:46:05;;;;;;;3.60;0.93;;;16.70;99.90;;;;;;5017471;28;20455;-87
2023/08/01 03:48:32;;;;;;;3.70;1.43;;;16.70;99.90;;;;;;5017143;28;20487;-86
2023/08/01 03:51:00;;;;;;;6.70;1.07;;;16.70;99.90;;;;;;5016252;28;20523;-85
2023/08/01 03:53:27;;;;;;;4.23;1.17;;;16.70;99.90;;;;;;5015308;28;20479;-86
2023/08/01 03:55:55;;;;;;;3.60;1.10;;;16.80;99.90;;;;;;5015336;28;20470;-84
2023/08/01 03:58:21;;;;;;;1.73;0.80;;;16.80;99.90;;;;;;5015486;28;20462;-85
2023/08/01 04:00:48;;;;;;;1.37;0.60;;;16.90;99.90;;;;;;5015633;28;20803;-83
2023/08/01 04:03:15;;;;;;;1.63;1.23;;;16.90;99.90;;;;;;5014843;28;20467;-87
2023/08/01 04:05:42;;;;;;;3.63;0.93;;;16.80;99.90;;;;;;5015233;28;20455;-86
2023/08/01 04:08:09;;;;;;;1.87;1.00;;;16.90;99.90;;;;;;5015178;28;20451;-85
2023/08/01 04:10:36;;;;;;;2.73;0.83;;;17.00;99.90;;;;;;5014611;28;20959;-86
2023/08/01 04:13:04;;;;;;;1.70;0.70;;;16.90;99.90;;;;;;5014594;28;20490;-88
2023/08/01 04:15:31;;;;;;;1.70;0.90;;;17.00;99.90;;;;;;5015369;28;20455;-88
2023/08/01 04:17:57;;;;;;;2.40;0.93;;;17.00;99.90;;;;;;5014698;28;20442;-86
2023/08/01 04:20:24;;;;;;;1.47;1.03;;;17.00;99.90;;;;;;5014994;28;20800;-87
2023/08/01 04:22:51;;;;;;;1.60;0.90;;;16.90;99.90;;;;;;5015159;28;20808;-86
2023/08/01 04:25:18;;;;;;;1.20;0.90;;;16.90;99.90;;;;;;5014764;28;20832;-87
2023/08/01 04:27:45;;;;;;;1.93;1.20;;;16.90;99.90;;;;;;5014822;28;20546;-86
2023/08/01 04:30:13;;;;;;;3.50;1.33;;;16.90;99.90;;;;;;5014614;28;20436;-87
2023/08/01 04:32:40;;;;;;;0.83;0.70;;;16.90;99.90;;;;;;5014643;28;20491;-87
2023/08/01 04:35:07;;;;;;;1.20;0.97;;;16.90;99.90;;;;;;5014032;28;21020;-87
2023/08/01 04:37:34;;;;;;;1.00;1.00;;;16.80;99.90;;;;;;5014434;28;20539;-86
2023/08/01 04:40:01;;;;;;;3.73;0.70;;;16.80;99.90;;;;;;5013843;28;20443;-87
2023/08/01 04:42:28;;;;;;;1.00;0.90;;;16.70;99.90;;;;;;5014937;28;20798;-88
2023/08/01 04:44:55;;;;;;;1.93;1.20;;;16.80;99.90;;;;;;5014347;28;20502;-86
2023/08/01 04:47:24;;;;;;;1.17;0.93;;;16.70;99.90;;;;;;5014394;28;20454;-86
2023/08/01 04:49:51;;;;;;;1.23;0.97;;;16.70;99.90;;;;;;5014518;28;20791;-86
2023/08/01 04:52:17;;;;;;;0.90;0.80;;;16.70;99.90;;;;;;5014169;28;20483;-86
2023/08/01 04:54:44;;;;;;;1.77;0.80;;;16.70;99.90;;;;;;5014142;28;20471;-86
2023/08/01 04:57:11;;;;;;;2.73;1.00;;;16.80;99.90;;;;;;5014130;28;20450;-86
2023/08/01 04:59:38;;;;;;;1.23;0.97;;;16.80;99.90;;;;;;5014423;28;20443;-86
2023/08/01 05:02:05;;;;;;;2.80;1.10;;;16.80;99.90;;;;;;5014025;28;20435;-85
2023/08/01 05:04:33;;;;;;;2.33;0.90;;;16.80;99.90;;;;;;5013899;28;20491;-86
2023/08/01 05:07:00;;;;;;;4.97;1.13;;;16.90;99.90;;;;;;5014154;28;20452;-85
2023/08/01 05:09:27;;;;;;;2.87;1.27;;;16.90;99.90;;;;;;5014593;28;20826;-87
2023/08/01 05:11:53;;;;;;;1.90;1.00;;;16.90;99.90;;;;;;5014013;28;20458;-86
2023/08/01 05:14:20;;;;;;;2.00;1.20;;;17.00;99.90;;;;;;5014155;28;20463;-86
2023/08/01 05:16:47;;;;;;;1.40;0.83;;;17.00;99.90;;;;;;5014110;28;20461;-86
2023/08/01 05:19:14;;;;;;;3.73;1.57;;;17.10;99.90;;;;;;5014184;28;20447;-86
2023/08/01 05:21:42;;;;;;;3.97;1.27;;;17.20;99.90;;;;;;5013730;28;20442;-86
2023/08/01 05:24:09;;;;;;;1.03;1.00;;;17.10;99.90;;;;;;5013688;28;20467;-86
2023/08/01 05:26:36;;;;;;;3.20;1.40;;;17.20;99.90;;;;;;5013908;28;20443;-86
2023/08/01 05:29:03;;;;;;;0.80;0.67;;;17.20;99.90;;;;;;5013559;28;20801;-86
2023/08/01 05:31:30;;;;;;;2.60;1.20;;;17.20;99.90;;;;;;5013875;28;20444;-86
2023/08/01 05:33:57;;;;;;;1.43;1.03;;;17.20;99.90;;;;;;5013462;28;20491;-85
2023/08/01 05:36:24;;;;;;;2.90;1.20;;;17.20;99.90;;;;;;5013439;28;20420;-85
2023/08/01 05:38:52;;;;;;;1.67;0.90;;;17.30;99.90;;;;;;5014091;28;20466;-85
2023/08/01 05:41:18;;;;;;;2.67;1.60;;;17.30;99.90;;;;;;5013535;28;20448;-86
2023/08/01 05:43:45;;;;;;;1.07;0.90;;;17.30;99.90;;;;;;5013556;28;20965;-85
2023/08/01 05:46:12;;;;;;;2.37;1.63;;;17.30;99.90;;;;;;5013663;28;20459;-86
2023/08/01 05:48:39;;;;;;;1.47;0.87;;;17.30;99.90;;;;;;5013717;28;20455;-86
2023/08/01 05:51:05;;;;;;;1.30;1.20;;;17.40;99.90;;;;;;5015593;28;20443;-86
2023/08/01 05:53:32;;;;;;;3.23;1.47;;;17.40;99.90;;;;;;5017412;28;20497;-86
2023/08/01 05:56:00;;;;;;;2.30;1.00;;;17.40;99.90;;;;;;5017512;28;20447;-87
2023/08/01 05:58:27;;;;;;;2.37;1.07;;;17.50;99.90;;;;;;5017470;28;20444;-87
2023/08/01 06:00:54;;;;;;;1.37;0.90;;;17.40;99.90;;;;;;5017430;28;20427;-86
2023/08/01 06:03:20;;;;;;;1.93;1.63;;;17.40;99.90;;;;;;5017393;28;20837;-86
2023/08/01 06:05:47;;;;;;;1.57;1.27;;;17.50;99.90;;;;;;5017337;28;20447;-86
2023/08/01 06:08:15;;;;;;;3.90;1.27;;;17.50;99.90;;;;;;5016942;28;20442;-87
2023/08/01 06:10:42;;;;;;;2.37;1.27;;;17.60;99.90;;;;;;5017189;28;20558;-89
2023/08/01 06:13:10;;;;;;;3.03;1.20;;;17.50;99.90;;;;;;5016809;28;20479;-86
2023/08/01 06:15:37;;;;;;;2.20;1.10;;;17.50;99.90;;;;;;5016779;28;20444;-85
2023/08/01 06:18:04;;;;;;;3.90;1.27;;;17.50;99.90;;;;;;5016857;28;20443;-83
2023/08/01 06:20:30;;;;;;;3.97;1.17;;;17.50;99.90;;;;;;5016836;28;20443;-84
2023/08/01 06:22:57;;;;;;;3.10;0.90;;;17.50;99.90;;;;;;5016794;28;20450;-85
2023/08/01 06:25:24;;;;;;;1.87;0.83;;;17.50;99.90;;;;;;5017009;28;20456;-84
2023/08/01 06:27:51;;;;;;;2.33;1.07;;;17.50;99.90;;;;;;5016254;28;20825;-85
2023/08/01 06:30:19;;;;;;;2.70;1.23;;;17.50;99.90;;;;;;5016690;28;20451;-85
2023/08/01 06:32:46;;;;;;;1.47;1.37;;;17.50;99.90;;;;;;5016462;28;20483;-85
2023/08/01 06:35:12;;;;;;;3.57;2.03;;;17.50;99.90;;;;;;5016034;28;20486;-84
2023/08/01 06:37:39;;;;;;;1.80;1.53;;;17.50;99.90;;;;;;5016174;28;20438;-84
2023/08/01 06:40:07;;;;;;;2.70;1.00;;;17.40;99.90;;;;;;5016631;28;20621;-84
2023/08/01 06:42:34;;;;;;;2.70;1.23;;;17.40;99.90;;;;;;5016009;28;20472;-85
2023/08/01 06:45:01;;;;;;;3.20;1.20;;;17.40;99.90;;;;;;5016477;28;20470;-85
2023/08/01 06:47:29;;;;;;;1.73;0.87;;;17.30;99.90;;;;;;5016419;28;20436;-84
2023/08/01 06:49:56;;;;;;;1.73;1.17;;;17.30;99.90;;;;;;5016141;28;20448;-82
2023/08/01 06:52:22;;;;;;;3.33;1.30;;;17.30;99.90;;;;;;5016125;28;20443;-85
2023/08/01 06:54:49;;;;;;;1.47;0.90;;;17.40;99.90;;;;;;5016150;28;20464;-86
2023/08/01 06:57:16;;;;;;;2.00;1.20;;;17.30;99.90;;;;;;5016268;28;20579;-87
2023/08/01 06:59:43;;;;;;;1.70;1.30;;;17.40;99.90;;;;;;5016390;28;20893;-87
2023/08/01 07:02:10;;;;;;;2.47;1.30;;;17.40;99.90;;;;;;5015342;28;21011;-87
2023/08/01 07:04:38;;;;;;;4.03;1.83;;;17.50;99.90;;;;;;5016639;28;20467;-86
2023/08/01 07:07:05;;;;;;;2.10;1.50;;;17.50;99.90;;;;;;5016371;28;20775;-88
2023/08/01 07:09:32;;;;;;;1.47;1.30;;;17.60;99.90;;;;;;5016266;28;20866;-87
2023/08/01 07:11:59;;;;;;;3.70;1.83;;;17.60;99.90;;;;;;5016241;28;20936;-86
2023/08/01 07:14:26;;;;;;;3.30;1.90;;;17.60;99.90;;;;;;5016338;28;20490;-87
2023/08/01 07:16:52;;;;;;;2.77;1.37;;;17.50;99.90;;;;;;5015776;28;20446;-86
2023/08/01 07:19:19;;;;;;;3.03;1.73;;;17.40;99.90;;;;;;5015581;28;20448;-85
2023/08/01 07:21:48;;;;;;;1.43;0.90;;;17.00;99.90;;;;;;5015724;28;20479;-85
2023/08/01 07:24:15;;;;;;;4.40;1.50;;;16.80;99.90;;;;;;5015685;28;20459;-84
2023/08/01 07:26:42;;;;;;;1.90;1.40;;;16.70;99.90;;;;;;5015251;28;20929;-83
2023/08/01 07:29:10;;;;;;;7.90;2.60;;;16.50;99.90;;;;;;5015773;28;20808;-84
2023/08/01 07:31:37;;;;;;;3.37;1.50;;;16.50;99.90;;;;;;5015024;28;20546;-83
2023/08/01 07:34:04;;;;;;;1.40;1.00;;;16.50;99.90;;;;;;5014950;28;20491;-84
2023/08/01 07:36:30;;;;;;;4.80;1.33;;;16.50;99.90;;;;;;5015367;28;20435;-83
2023/08/01 07:38:58;;;;;;;1.23;0.93;;;16.50;99.90;;;;;;5015234;28;20453;-83
2023/08/01 07:41:25;;;;;;;7.37;0.80;;;16.50;99.90;;;;;;5015147;28;20477;-81
2023/08/01 07:43:52;;;;;;;0.70;0.60;;;16.50;99.90;;;;;;5015072;28;20460;-81
2023/08/01 07:46:19;;;;;;;3.17;0.80;;;16.50;99.90;;;;;;5015161;28;20452;-80
2023/08/01 07:48:45;;;;;;;2.97;1.00;;;16.30;99.90;;;;;;5014898;28;20816;-80
2023/08/01 07:51:12;;;;;;;0.93;0.50;;;16.20;99.90;;;;;;5014698;28;20448;-80
2023/08/01 07:53:39;;;;;;;0.70;0.70;;;16.20;99.90;;;;;;5014795;28;20501;-80
2023/08/01 07:56:08;;;;;;;2.10;0.60;;;16.10;99.90;;;;;;5014908;28;20448;-80
2023/08/01 07:58:35;;;;;;;1.10;0.63;;;16.00;99.90;;;;;;5014850;28;20451;-81
2023/08/01 08:01:04;;;;;;;2.30;1.17;;;16.00;99.90;;;;;;5014423;28;20824;-80
2023/08/01 08:03:31;;;;;;;0.40;0.37;;;15.90;99.90;;;;;;5014450;28;20827;-80
2023/08/01 08:05:57;;;;;;;1.90;0.80;;;15.90;99.90;;;;;;5014700;28;20451;-79
2023/08/01 08:08:24;;;;;;;3.53;0.50;;;15.90;99.90;;;;;;5014729;28;20439;-80
2023/08/01 08:10:51;;;;;;;1.57;0.73;;;15.90;99.90;;;;;;5014537;28;20448;-80
2023/08/01 08:13:20;;;;;;;1.13;0.90;;;15.90;99.90;;;;;;5014051;28;21000;-78
2023/08/01 08:15:47;;;;;;;1.23;0.70;;;15.90;99.90;;;;;;5014637;28;20483;-79
2023/08/01 08:18:14;;;;;;;0.87;0.50;;;15.90;99.90;;;;;;5014203;28;20937;-80
2023/08/01 08:20:46;;;;;;;0.80;0.60;;;15.90;99.90;;;;;;5014405;28;20542;-79
2023/08/01 08:23:13;;;;;;;2.50;1.40;;;15.90;99.90;;;;;;5014881;28;20443;-80
2023/08/01 08:25:41;;;;;;;1.33;0.70;;;16.00;99.90;;;;;;5014320;28;20542;-79
2023/08/01 08:28:07;;;;;;;1.40;1.00;;;15.90;99.90;;;;;;5014227;28;20453;-79
2023/08/01 08:30:36;;;;;;;2.13;0.70;;;15.90;99.90;;;;;;5014023;28;20447;-79
2023/08/01 08:33:06;;;;;;;2.33;0.73;;;16.00;99.90;;;;;;5014080;28;20459;-79
2023/08/01 08:35:33;;;;;;;5.17;0.83;;;16.00;99.90;;;;;;5013924;28;21011;-80
2023/08/01 08:38:02;;;;;;;0.80;0.57;;;16.10;99.90;;;;;;5014393;28;20443;-80
2023/08/01 08:40:29;;;;;;;3.03;0.80;;;16.10;99.90;;;;;;5014083;28;20450;-81
2023/08/01 08:42:57;;;;;;;2.13;0.70;;;16.20;99.90;;;;;;5013817;28;20455;-81
2023/08/01 08:45:24;;;;;;;3.10;1.00;;;16.20;99.90;;;;;;5014028;28;20451;-80
2023/08/01 08:47:56;;;;;;;2.60;0.70;;;16.20;99.90;;;;;;5013866;28;20814;-81
2023/08/01 08:50:24;;;;;;;2.00;0.80;;;16.30;99.90;;;;;;5014108;28;20444;-79
2023/08/01 08:52:52;;;;;;;1.20;0.77;;;16.20;99.90;;;;;;5013960;28;20436;-79
2023/08/01 08:55:22;;;;;;;1.33;0.50;;;16.20;99.90;;;;;;5013484;28;20979;-80
2023/08/01 08:57:50;;;;;;;0.70;0.63;;;16.20;99.90;;;;;;5013485;28;20819;-80
2023/08/01 09:00:19;;;;;;;3.30;0.67;;;16.20;99.90;;;;;;5014029;28;20440;-79
2023/08/01 09:02:45;;;;;;;1.23;0.90;;;16.20;99.90;;;;;;5013487;28;20451;-80
2023/08/01 09:05:14;;;;;;;0.80;0.40;;;16.20;99.90;;;;;;5013363;28;20474;-80
2023/08/01 09:07:47;;;;;;;0.90;0.80;;;16.30;99.90;;;;;;5013853;28;20446;-84
2023/08/01 09:10:14;;;;;;;0.50;0.50;;;16.30;99.90;;;;;;5013440;28;20446;-84
2023/08/01 09:12:41;;;;;;;2.50;0.53;;;16.40;99.90;;;;;;5013672;28;20444;-84
2023/08/01 09:15:10;;;;;;;0.70;0.60;;;16.50;99.90;;;;;;5013680;28;20487;-84
2023/08/01 09:17:47;;;;;;;0.60;0.40;;;16.50;99.90;;;;;;5013585;28;20446;-84
2023/08/01 09:20:15;;;;;;;1.03;0.50;;;16.50;99.90;;;;;;5013679;28;20801;-84
2023/08/01 09:22:44;;;;;;;3.13;0.60;;;16.50;99.90;;;;;;5013584;28;20443;-84
2023/08/01 09:25:11;;;;;;;1.33;0.37;;;16.60;99.90;;;;;;5014851;28;20829;-82
2023/08/01 09:27:38;;;;;;;0.63;0.47;;;16.60;99.90;;;;;;5020050;28;20471;-82
2023/08/01 09:30:15;;;;;;;0.90;0.70;;;16.60;99.90;;;;;;5019983;28;20451;-81
2023/08/01 09:32:52;;;;;;;0.40;0.30;;;16.70;99.90;;;;;;5019870;28;20932;-82
2023/08/01 09:35:21;;;;;;;0.93;0.40;;;16.70;99.90;;;;;;5019500;28;20491;-81
2023/08/01 09:37:48;;;;;;;0.37;0.30;;;16.60;99.90;;;;;;5020160;28;20443;-82
2023/08/01 09:40:16;;;;;;;1.00;0.43;;;16.60;99.90;;;;;;5019925;28;20471;-82
2023/08/01 09:42:45;;;;;;;0.33;0.30;;;16.60;99.90;;;;;;5019893;28;20443;-82
2023/08/01 09:45:15;;;;;;;0.53;0.30;;;16.60;99.90;;;;;;5019570;28;20470;-82
2023/08/01 09:47:42;;;;;;;0.40;0.30;;;16.70;99.90;;;;;;5019556;28;20946;-83
2023/08/01 09:50:11;;;;;;;0.40;0.30;;;16.80;99.90;;;;;;5019480;28;20826;-82
2023/08/01 09:52:39;;;;;;;0.50;0.50;;;16.80;99.90;;;;;;5019552;28;20451;-83
2023/08/01 09:55:07;;;;;;;0.80;0.30;;;16.90;99.90;;;;;;5019387;28;20856;-83
2023/08/01 09:57:38;;;;;;;0.40;0.30;;;17.00;99.90;;;;;;5019485;28;20822;-83
2023/08/01 10:00:06;;;;;;;2.20;0.30;;;17.10;99.90;;;;;;5019502;28;20920;-83
2023/08/01 10:02:34;;;;;;;0.40;0.30;;;17.10;99.90;;;;;;5019777;28;20497;-84
2023/08/01 10:05:01;;;;;;;0.50;0.40;;;17.10;99.90;;;;;;5019655;28;20464;-84
2023/08/01 10:07:31;;;;;;;0.90;0.30;;;17.10;99.90;;;;;;5019738;28;20630;-84
2023/08/01 10:10:01;;;;;;;0.40;0.30;;;17.10;99.90;;;;;;5019936;28;20646;-84
2023/08/01 10:12:28;;;;;;;0.40;0.40;;;17.00;99.90;;;;;;5019724;28;20470;-84
2023/08/01 10:14:55;;;;;;;0.47;0.30;;;17.00;99.90;;;;;;5019591;28;20578;-84
2023/08/01 10:17:24;;;;;;;1.03;0.40;;;17.00;99.90;;;;;;5019363;28;20447;-84
2023/08/01 10:19:51;;;;;;;0.40;0.30;;;17.10;99.90;;;;;;5019934;28;20455;-85
2023/08/01 10:22:19;;;;;;;1.53;0.60;;;17.10;99.90;;;;;;5019747;28;20671;-84
2023/08/01 10:24:47;;;;;;;0.40;0.40;;;17.20;99.90;;;;;;5019417;28;20459;-85
2023/08/01 10:27:19;;;;;;;0.53;0.40;;;17.30;99.90;;;;;;5019587;28;20971;-85
2023/08/01 10:29:56;;;;;;;0.50;0.40;;;17.30;99.90;;;;;;5019694;28;20440;-85
2023/08/01 10:32:30;;;;;;;0.40;0.40;;;17.40;99.90;;;;;;5019655;28;20435;-85
2023/08/01 10:34:57;;;;;;;0.40;0.30;;;17.60;99.90;;;;;;5018965;28;20493;-85
2023/08/01 10:37:23;;;;;;;0.40;0.30;;;17.70;99.90;;;;;;5016594;28;20479;-87
2023/08/01 10:39:57;;;;;;;0.40;0.30;;;17.70;99.90;;;;;;5016757;28;20455;-86
2023/08/01 10:42:37;;;;;;;0.30;0.30;;;17.70;99.90;;;;;;5016850;28;20424;-87
2023/08/01 10:45:05;;;;;;;0.30;0.30;;;17.70;99.90;;;;;;5016978;28;20467;-88
2023/08/01 10:47:32;;;;;;;0.47;0.30;;;17.90;99.90;;;;;;5016836;28;20444;-87
2023/08/01 10:49:59;;;;;;;0.30;0.30;;;18.20;99.90;;;;;;5016949;28;20448;-88
2023/08/01 10:52:27;;;;;;;0.40;0.30;;;18.50;99.90;;;;;;5016632;28;20964;-87
2023/08/01 10:54:59;;;;;;;0.70;0.50;;;18.70;99.90;;;;;;5017705;28;20541;-91
2023/08/01 10:57:28;;;;;;;0.40;0.30;;;19.10;99.90;;;;;;5017739;28;20447;-90
2023/08/01 10:59:56;;;;;;;0.77;0.40;;;19.20;99.90;;;;;;5017472;28;20443;-91
2023/08/01 11:02:25;;;;;;;0.40;0.33;;;19.20;99.90;;;;;;5017363;28;20466;-91
2023/08/01 11:05:04;;;;;;;2.30;0.30;;;19.30;99.90;;;;;;5016824;28;21003;-90
2023/08/01 11:07:31;;;;;;;0.60;0.50;;;19.30;99.90;;;;;;5017147;28;20462;-89
2023/08/01 11:10:09;;;;;;;0.50;0.30;;;19.40;99.90;;;;;;5016670;28;20451;-90
2023/08/01 11:12:39;;;;;;;0.40;0.40;;;19.30;99.90;;;;;;5017041;28;20454;-90
2023/08/01 11:15:08;;;;;;;0.70;0.30;;;19.30;99.90;;;;;;5016597;28;20479;-90
2023/08/01 11:17:35;;;;;;;0.60;0.50;;;19.50;99.90;;;;;;5017197;28;20451;-90
2023/08/01 11:20:04;;;;;;;0.40;0.40;;;19.50;99.90;;;;;;5017163;28;20447;-92
2023/08/01 11:22:31;;;;;;;0.40;0.30;;;19.60;99.90;;;;;;5016842;28;20447;-92
2023/08/01 11:24:58;;;;;;;0.40;0.40;;;19.60;99.90;;;;;;5017110;28;20468;-93
2023/08/01 11:27:25;;;;;;;0.40;0.40;;;19.70;99.90;;;;;;5016809;28;20458;-93
2023/08/01 11:29:53;;;;;;;0.60;0.47;;;19.50;99.90;;;;;;5017216;28;20451;-96
2023/08/01 11:32:21;;;;;;;0.50;0.50;;;19.40;99.90;;;;;;5016490;28;21004;-91
2023/08/01 11:34:48;;;;;;;0.60;0.50;;;19.40;99.90;;;;;;5016425;28;20497;-92
2023/08/01 11:37:16;;;;;;;0.40;0.40;;;19.40;99.90;;;;;;5016514;28;20461;-95
2023/08/01 11:39:43;;;;;;;0.80;0.60;;;19.40;99.90;;;;;;5016506;28;20454;-94
2023/08/01 11:42:16;;;;;;;0.70;0.40;;;19.40;99.90;;;;;;5016821;28;20451;-94
2023/08/01 11:44:43;;;;;;;2.50;0.40;;;19.40;99.90;;;;;;5016240;28;20455;-93
2023/08/01 11:47:14;;;;;;;0.67;0.53;;;19.60;99.90;;;;;;5016600;28;20454;-94
2023/08/01 11:49:46;;;;;;;0.40;0.40;;;19.70;99.90;;;;;;5016182;28;20420;-94
2023/08/01 11:52:24;;;;;;;0.53;0.40;;;19.80;99.90;;;;;;5016033;28;20913;-92
2023/08/01 11:54:51;;;;;;;0.50;0.50;;;19.70;99.90;;;;;;5016483;28;20495;-93
2023/08/01 11:57:17;;;;;;;0.60;0.40;;;19.50;99.90;;;;;;5016038;28;20948;-93
2023/08/01 11:59:48;;;;;;;2.07;0.60;;;19.40;99.90;;;;;;5016068;28;20443;-92
2023/08/01 12:02:23;;;;;;;0.80;0.47;;;19.40;99.90;;;;;;5016392;28;20821;-93
2023/08/01 12:04:51;;;;;;;0.53;0.53;;;19.50;99.90;;;;;;5015961;28;20570;-94
2023/08/01 12:07:19;;;;;;;0.60;0.47;;;19.70;99.90;;;;;;5016361;28;20531;-94
2023/08/01 12:09:55;;;;;;;0.50;0.40;;;19.80;99.90;;;;;;5016815;28;20463;-94
2023/08/01 12:12:22;;;;;;;1.73;0.60;;;19.80;99.90;;;;;;5016963;28;20443;-94
2023/08/01 12:14:49;;;;;;;1.07;0.50;;;19.80;99.90;;;;;;5015847;28;20483;-95
2023/08/01 12:17:15;;;;;;;0.40;0.40;;;19.90;99.90;;;;;;5016020;28;20478;-94
2023/08/01 12:19:43;;;;;;;1.03;0.60;;;20.00;99.90;;;;;;5015799;28;20444;-92
2023/08/01 12:22:10;;;;;;;0.47;0.40;;;20.10;99.90;;;;;;5015698;28;20436;-86
2023/08/01 12:24:37;;;;;;;0.87;0.53;;;20.20;99.90;;;;;;5016238;28;20463;-94
2023/08/01 12:27:06;;;;;;;0.40;0.40;;;20.40;99.90;;;;;;5016139;28;20455;-94
2023/08/01 12:29:32;;;;;;;1.97;0.50;;;20.50;99.90;;;;;;5015615;28;20443;-91
2023/08/01 12:31:59;;;;;;;2.23;0.50;;;20.70;99.90;;;;;;5015954;28;20439;-93
2023/08/01 12:34:26;;;;;;;0.70;0.57;;;20.70;99.90;;;;;;5015406;28;20479;-93
2023/08/01 12:36:54;;;;;;;0.80;0.60;;;20.80;99.90;;;;;;5015896;28;20439;-93
2023/08/01 12:39:21;;;;;;;0.50;0.50;;;20.80;99.90;;;;;;5015870;28;20459;-93
2023/08/01 12:41:47;;;;;;;0.70;0.50;;;20.70;99.90;;;;;;5016072;28;20457;-93
2023/08/01 12:44:15;;;;;;;0.47;0.47;;;20.70;99.90;;;;;;5015262;28;20475;-91
2023/08/01 12:46:43;;;;;;;0.80;0.50;;;20.70;99.90;;;;;;5016089;28;20940;-89
2023/08/01 12:49:10;;;;;;;0.60;0.50;;;20.60;99.90;;;;;;5015636;28;20454;-91